createdAt,value
2017-07-15T00:01:12.194Z,15.90
2017-07-15T00:03:40.595Z,15.90
2017-07-15T00:06:08.866Z,15.90
2017-07-15T00:08:37.198Z,15.90
2017-07-15T00:11:05.510Z,15.90
2017-07-15T00:13:33.786Z,15.90
2017-07-15T00:16:02.086Z,15.90
2017-07-15T00:18:30.473Z,15.80
2017-07-15T00:20:58.828Z,15.80
2017-07-15T00:23:27.208Z,15.70
2017-07-15T00:25:55.585Z,15.70
2017-07-15T00:28:23.888Z,15.60
2017-07-15T00:30:52.165Z,15.60
2017-07-15T00:33:20.530Z,15.60
2017-07-15T00:35:48.808Z,15.60
2017-07-15T00:38:17.192Z,15.60
2017-07-15T00:40:45.474Z,15.60
2017-07-15T00:43:13.737Z,15.60
2017-07-15T00:45:42.011Z,15.50
2017-07-15T00:48:10.290Z,15.50
2017-07-15T00:50:38.599Z,15.50
2017-07-15T00:53:07.661Z,15.50
2017-07-15T00:55:35.985Z,15.50
2017-07-15T00:58:04.315Z,15.40
2017-07-15T01:00:32.571Z,15.40
2017-07-15T01:03:00.871Z,15.50
2017-07-15T01:05:29.143Z,15.50
2017-07-15T01:07:57.407Z,15.50
2017-07-15T01:10:25.698Z,15.50
2017-07-15T01:12:54.004Z,15.50
2017-07-15T01:15:23.040Z,15.50
2017-07-15T01:17:51.361Z,15.50
2017-07-15T01:20:19.731Z,15.50
2017-07-15T01:22:48.004Z,15.60
2017-07-15T01:25:16.373Z,15.60
2017-07-15T01:27:44.640Z,15.60
2017-07-15T01:30:13.018Z,15.60
2017-07-15T01:32:41.285Z,15.70
2017-07-15T01:35:09.578Z,15.70
2017-07-15T01:37:37.872Z,15.80
2017-07-15T01:40:06.173Z,15.80
2017-07-15T01:42:35.273Z,15.70
2017-07-15T01:45:04.362Z,15.60
2017-07-15T01:47:32.643Z,15.60
2017-07-15T01:50:01.681Z,15.50
2017-07-15T01:52:30.090Z,15.50
2017-07-15T01:54:58.371Z,15.50
2017-07-15T01:57:26.637Z,15.50
2017-07-15T01:59:54.937Z,15.50
2017-07-15T02:02:23.207Z,15.50
2017-07-15T02:04:51.587Z,15.50
2017-07-15T02:07:19.855Z,15.50
2017-07-15T02:09:48.256Z,15.60
2017-07-15T02:12:16.614Z,15.50
2017-07-15T02:14:44.878Z,15.60
2017-07-15T02:17:13.173Z,15.50
2017-07-15T02:19:41.451Z,15.50
2017-07-15T02:22:09.829Z,15.40
2017-07-15T02:24:38.079Z,15.40
2017-07-15T02:27:06.481Z,15.40
2017-07-15T02:29:34.759Z,15.30
2017-07-15T02:32:03.022Z,15.30
2017-07-15T02:34:31.300Z,15.40
2017-07-15T02:36:59.588Z,15.40
2017-07-15T02:39:28.070Z,15.40
2017-07-15T02:41:56.366Z,15.40
2017-07-15T02:44:24.734Z,15.40
2017-07-15T02:46:53.014Z,15.40
2017-07-15T02:49:21.335Z,15.40
2017-07-15T02:51:49.645Z,15.40
2017-07-15T02:54:17.903Z,15.50
2017-07-15T02:56:46.216Z,15.50
2017-07-15T02:59:14.491Z,15.60
2017-07-15T03:01:42.897Z,15.50
2017-07-15T03:04:11.925Z,15.40
2017-07-15T03:06:40.214Z,15.40
2017-07-15T03:09:08.521Z,15.30
2017-07-15T03:11:36.799Z,15.10
2017-07-15T03:14:05.177Z,15.00
2017-07-15T03:16:33.437Z,14.90
2017-07-15T03:19:01.785Z,14.80
2017-07-15T03:21:30.149Z,14.80
2017-07-15T03:23:58.548Z,14.80
2017-07-15T03:26:39.456Z,14.80
2017-07-15T03:29:07.751Z,14.70
2017-07-15T03:31:36.056Z,14.80
2017-07-15T03:34:04.327Z,14.70
2017-07-15T03:36:32.734Z,14.70
2017-07-15T03:39:01.094Z,14.70
2017-07-15T03:41:29.381Z,14.70
2017-07-15T03:43:57.666Z,14.60
2017-07-15T03:46:25.969Z,14.60
2017-07-15T03:48:54.238Z,14.60
2017-07-15T03:51:22.632Z,14.50
2017-07-15T03:53:50.895Z,14.40
2017-07-15T03:56:19.200Z,14.40
2017-07-15T03:58:48.258Z,14.40
2017-07-15T04:01:16.528Z,14.40
2017-07-15T04:03:44.945Z,14.40
2017-07-15T04:06:13.310Z,14.40
2017-07-15T04:08:41.606Z,14.50
2017-07-15T04:11:09.906Z,14.50
2017-07-15T04:13:38.956Z,14.50
2017-07-15T04:16:07.269Z,14.50
2017-07-15T04:18:35.535Z,14.60
2017-07-15T04:21:03.904Z,14.70
2017-07-15T04:23:32.310Z,14.60
2017-07-15T04:26:01.393Z,14.60
2017-07-15T04:28:29.741Z,14.60
2017-07-15T04:30:58.004Z,14.50
2017-07-15T04:33:26.309Z,14.60
2017-07-15T04:35:54.697Z,14.60
2017-07-15T04:38:22.990Z,14.60
2017-07-15T04:40:51.267Z,14.60
2017-07-15T04:43:19.581Z,14.60
2017-07-15T04:45:47.849Z,14.60
2017-07-15T04:48:16.188Z,14.70
2017-07-15T04:50:44.467Z,14.70
2017-07-15T04:53:12.750Z,14.80
2017-07-15T04:55:41.220Z,14.90
2017-07-15T04:58:09.641Z,14.90
2017-07-15T05:00:37.903Z,15.10
2017-07-15T05:03:06.957Z,15.10
2017-07-15T05:05:35.379Z,15.10
2017-07-15T05:08:04.443Z,15.40
2017-07-15T05:10:32.837Z,15.30
2017-07-15T05:13:01.205Z,15.40
2017-07-15T05:15:29.581Z,15.40
2017-07-15T05:17:57.970Z,15.40
2017-07-15T05:20:26.359Z,15.30
2017-07-15T05:22:54.642Z,15.40
2017-07-15T05:25:22.902Z,15.40
2017-07-15T05:27:51.286Z,15.40
2017-07-15T05:30:19.565Z,15.60
2017-07-15T05:32:47.947Z,15.80
2017-07-15T05:35:16.319Z,15.70
2017-07-15T05:37:44.691Z,15.70
2017-07-15T05:40:13.080Z,15.60
2017-07-15T05:42:41.379Z,15.50
2017-07-15T05:45:10.422Z,15.60
2017-07-15T05:47:38.689Z,15.60
2017-07-15T05:50:07.013Z,15.60
2017-07-15T05:52:35.403Z,15.60
2017-07-15T05:55:03.679Z,15.60
2017-07-15T05:57:32.059Z,15.60
2017-07-15T06:00:01.142Z,15.70
2017-07-15T06:02:29.522Z,15.70
2017-07-15T06:04:57.778Z,15.90
2017-07-15T06:07:26.179Z,16.10
2017-07-15T06:09:54.466Z,16.40
2017-07-15T06:12:22.765Z,16.40
2017-07-15T06:14:51.783Z,16.40
2017-07-15T06:17:20.204Z,16.40
2017-07-15T06:19:48.584Z,16.50
2017-07-15T06:22:16.835Z,16.50
2017-07-15T06:24:45.173Z,16.50
2017-07-15T06:27:14.242Z,16.70
2017-07-15T06:29:42.518Z,16.70
2017-07-15T06:32:10.875Z,16.80
2017-07-15T06:34:39.274Z,16.80
2017-07-15T06:37:07.649Z,16.90
2017-07-15T06:39:35.937Z,16.90
2017-07-15T06:42:04.223Z,17.00
2017-07-15T06:44:32.567Z,17.20
2017-07-15T06:47:00.853Z,17.30
2017-07-15T06:49:29.970Z,17.40
2017-07-15T06:51:59.075Z,17.40
2017-07-15T06:54:27.340Z,17.60
2017-07-15T06:56:55.697Z,17.60
2017-07-15T06:59:23.955Z,17.50
2017-07-15T07:01:52.299Z,17.50
2017-07-15T07:04:21.334Z,17.60
2017-07-15T07:06:49.681Z,17.60
2017-07-15T07:09:18.031Z,17.90
2017-07-15T07:11:46.292Z,18.10
2017-07-15T07:14:15.461Z,18.40
2017-07-15T07:16:43.715Z,18.40
2017-07-15T07:19:11.991Z,18.40
2017-07-15T07:21:40.289Z,18.50
2017-07-15T07:24:08.562Z,18.50
2017-07-15T07:26:36.877Z,18.70
2017-07-15T07:29:05.900Z,18.70
2017-07-15T07:31:34.267Z,18.70
2017-07-15T07:34:03.320Z,18.60
2017-07-15T07:36:31.790Z,18.70
2017-07-15T07:39:00.082Z,18.70
2017-07-15T07:41:28.380Z,18.90
2017-07-15T07:43:56.629Z,19.00
2017-07-15T07:46:24.942Z,19.30
2017-07-15T07:48:53.966Z,19.50
2017-07-15T07:51:22.295Z,19.40
2017-07-15T07:53:50.557Z,19.60
2017-07-15T07:56:18.865Z,19.80
2017-07-15T07:58:47.881Z,19.90
2017-07-15T08:01:16.154Z,19.90
2017-07-15T08:03:44.481Z,20.00
2017-07-15T08:06:12.762Z,20.20
2017-07-15T08:08:41.140Z,20.30
2017-07-15T08:11:09.406Z,20.30
2017-07-15T08:13:37.694Z,20.30
2017-07-15T08:16:05.981Z,20.10
2017-07-15T08:18:34.274Z,19.90
2017-07-15T08:21:03.322Z,19.80
2017-07-15T08:23:31.725Z,19.80
2017-07-15T08:25:59.979Z,20.00
2017-07-15T08:28:28.261Z,20.20
2017-07-15T08:30:56.550Z,20.30
2017-07-15T08:33:24.824Z,20.40
2017-07-15T08:35:53.101Z,20.50
2017-07-15T08:38:21.371Z,20.50
2017-07-15T08:40:49.661Z,20.50
2017-07-15T08:43:18.038Z,20.70
2017-07-15T08:45:46.315Z,20.90
2017-07-15T08:48:14.650Z,20.70
2017-07-15T08:50:42.962Z,20.70
2017-07-15T08:53:11.350Z,20.70
2017-07-15T08:55:39.615Z,21.00
2017-07-15T08:58:07.877Z,21.30
2017-07-15T09:00:36.177Z,21.50
2017-07-15T09:03:04.462Z,21.80
2017-07-15T09:05:32.842Z,22.10
2017-07-15T09:08:01.901Z,21.90
2017-07-15T09:10:30.179Z,21.90
2017-07-15T09:12:58.489Z,22.00
2017-07-15T09:15:26.737Z,21.90
2017-07-15T09:17:55.137Z,22.20
2017-07-15T09:20:24.329Z,21.70
2017-07-15T09:22:52.672Z,21.90
2017-07-15T09:25:20.972Z,22.20
2017-07-15T09:27:50.023Z,22.60
2017-07-15T09:30:18.320Z,22.60
2017-07-15T09:32:46.591Z,22.50
2017-07-15T09:35:14.873Z,22.60
2017-07-15T09:37:43.174Z,22.90
2017-07-15T09:40:12.247Z,23.60
2017-07-15T09:42:40.518Z,23.50
2017-07-15T09:45:08.906Z,23.30
2017-07-15T09:47:37.970Z,23.60
2017-07-15T09:50:06.252Z,23.60
2017-07-15T09:52:34.517Z,23.40
2017-07-15T09:55:02.828Z,23.00
2017-07-15T09:57:31.085Z,22.50
2017-07-15T09:59:59.341Z,22.20
2017-07-15T10:02:27.639Z,22.10
2017-07-15T10:04:55.925Z,22.40
2017-07-15T10:07:24.305Z,22.60
2017-07-15T10:09:52.556Z,23.00
2017-07-15T10:12:20.821Z,23.40
2017-07-15T10:14:49.867Z,23.40
2017-07-15T10:17:18.165Z,23.40
2017-07-15T10:19:46.539Z,23.50
2017-07-15T10:22:14.818Z,23.90
2017-07-15T10:24:43.090Z,24.00
2017-07-15T10:27:11.487Z,23.70
2017-07-15T10:29:39.737Z,23.40
2017-07-15T10:32:08.145Z,23.30
2017-07-15T10:34:36.413Z,22.80
2017-07-15T10:37:04.651Z,22.80
2017-07-15T10:39:32.937Z,22.90
2017-07-15T10:42:01.245Z,23.00
2017-07-15T10:44:29.618Z,22.80
2017-07-15T10:46:57.930Z,23.00
2017-07-15T10:49:26.984Z,23.10
2017-07-15T10:51:55.367Z,23.00
2017-07-15T10:54:23.619Z,23.00
2017-07-15T10:56:52.033Z,22.50
2017-07-15T10:59:20.299Z,22.30
2017-07-15T11:01:48.680Z,22.10
2017-07-15T11:04:16.957Z,22.10
2017-07-15T11:06:45.223Z,21.80
2017-07-15T11:09:13.616Z,21.80
2017-07-15T11:11:41.882Z,21.90
2017-07-15T11:14:10.303Z,21.90
2017-07-15T11:16:38.645Z,22.10
2017-07-15T11:19:07.023Z,22.40
2017-07-15T11:21:35.314Z,22.60
2017-07-15T11:24:03.592Z,22.90
2017-07-15T11:26:31.864Z,23.30
2017-07-15T11:29:00.141Z,23.20
2017-07-15T11:31:28.403Z,23.40
2017-07-15T11:33:56.787Z,23.30
2017-07-15T11:36:25.064Z,23.30
2017-07-15T11:38:53.452Z,23.30
2017-07-15T11:41:21.709Z,23.20
2017-07-15T11:43:49.982Z,23.30
2017-07-15T11:46:18.267Z,23.70
2017-07-15T11:48:46.678Z,24.10
2017-07-15T11:51:15.046Z,24.30
2017-07-15T11:53:43.308Z,24.30
2017-07-15T11:56:11.629Z,24.10
2017-07-15T11:58:40.658Z,23.70
2017-07-15T12:01:08.933Z,23.60
2017-07-15T12:03:37.251Z,23.20
2017-07-15T12:06:05.496Z,23.20
2017-07-15T12:08:33.825Z,23.30
2017-07-15T12:11:03.600Z,23.30
2017-07-15T12:13:31.865Z,23.30
2017-07-15T12:16:00.160Z,23.90
2017-07-15T12:18:28.435Z,25.30
2017-07-15T12:20:56.827Z,27.60
2017-07-15T12:23:25.100Z,28.50
2017-07-15T12:25:53.357Z,29.00
2017-07-15T12:28:21.752Z,29.20
2017-07-15T12:30:50.065Z,27.70
2017-07-15T12:33:19.088Z,29.10
2017-07-15T12:35:47.429Z,29.10
2017-07-15T12:38:15.691Z,30.60
2017-07-15T12:40:43.963Z,28.80
2017-07-15T12:43:12.233Z,28.70
2017-07-15T12:45:40.508Z,30.00
2017-07-15T12:48:09.305Z,31.60
2017-07-15T12:50:37.569Z,31.30
2017-07-15T12:53:05.865Z,31.60
2017-07-15T12:55:34.230Z,32.40
2017-07-15T12:58:02.504Z,33.10
2017-07-15T13:00:30.791Z,32.70
2017-07-15T13:02:59.073Z,32.80
2017-07-15T13:05:27.446Z,33.20
2017-07-15T13:07:55.735Z,33.50
2017-07-15T13:10:23.993Z,33.20
2017-07-15T13:12:52.387Z,34.80
2017-07-15T13:15:20.639Z,34.00
2017-07-15T13:17:49.023Z,34.10
2017-07-15T13:20:17.282Z,33.50
2017-07-15T13:22:46.413Z,33.00
2017-07-15T13:25:14.688Z,32.20
2017-07-15T13:27:42.963Z,31.40
2017-07-15T13:30:11.344Z,29.30
2017-07-15T13:32:39.593Z,28.30
2017-07-15T13:35:07.898Z,27.50
2017-07-15T13:37:36.940Z,26.40
2017-07-15T13:40:05.192Z,26.30
2017-07-15T13:42:33.496Z,26.10
2017-07-15T13:45:01.738Z,26.30
2017-07-15T13:47:30.769Z,30.20
2017-07-15T13:49:59.067Z,30.20
2017-07-15T13:52:27.324Z,30.40
2017-07-15T13:54:55.729Z,31.90
2017-07-15T13:57:23.976Z,33.90
2017-07-15T13:59:52.283Z,33.20
2017-07-15T14:02:20.665Z,33.00
2017-07-15T14:04:48.943Z,31.50
2017-07-15T14:07:17.237Z,31.30
2017-07-15T14:09:45.491Z,31.20
2017-07-15T14:12:13.743Z,31.40
2017-07-15T14:14:42.067Z,32.40
2017-07-15T14:17:10.430Z,33.20
2017-07-15T14:19:38.741Z,32.30
2017-07-15T14:22:07.805Z,27.60
2017-07-15T14:24:36.075Z,27.50
2017-07-15T14:27:04.330Z,27.00
2017-07-15T14:29:32.640Z,25.90
2017-07-15T14:32:00.916Z,25.40
2017-07-15T14:34:29.285Z,24.90
2017-07-15T14:36:57.566Z,24.20
2017-07-15T14:39:25.829Z,23.60
2017-07-15T14:41:54.093Z,23.10
2017-07-15T14:44:22.480Z,22.60
2017-07-15T14:46:50.732Z,22.50
2017-07-15T14:49:18.979Z,22.60
2017-07-15T14:51:48.037Z,22.80
2017-07-15T14:54:16.313Z,22.80
2017-07-15T14:56:44.597Z,23.10
2017-07-15T14:59:12.903Z,23.60
2017-07-15T15:01:41.209Z,24.10
2017-07-15T15:04:09.460Z,25.10
2017-07-15T15:06:37.717Z,26.60
2017-07-15T15:09:06.090Z,27.10
2017-07-15T15:11:34.463Z,26.90
2017-07-15T15:14:02.823Z,26.70
2017-07-15T15:16:31.129Z,26.30
2017-07-15T15:18:59.389Z,26.10
2017-07-15T15:21:27.755Z,25.20
2017-07-15T15:23:56.052Z,24.70
2017-07-15T15:26:24.335Z,24.60
2017-07-15T15:28:52.584Z,24.30
2017-07-15T15:31:20.843Z,24.30
2017-07-15T15:33:54.769Z,24.20
2017-07-15T15:36:23.826Z,23.70
2017-07-15T15:38:52.097Z,23.60
2017-07-15T15:41:20.365Z,23.40
2017-07-15T15:43:48.765Z,23.30
2017-07-15T15:46:17.036Z,23.30
2017-07-15T15:48:45.310Z,23.20
2017-07-15T15:51:13.705Z,23.00
2017-07-15T15:53:41.971Z,22.90
2017-07-15T15:56:10.258Z,22.90
2017-07-15T15:58:38.523Z,22.90
2017-07-15T16:01:06.799Z,23.00
2017-07-15T16:03:35.133Z,23.20
2017-07-15T16:06:03.399Z,23.20
2017-07-15T16:08:31.785Z,23.10
2017-07-15T16:11:00.034Z,23.10
2017-07-15T16:13:28.341Z,23.10
2017-07-15T16:15:56.625Z,22.60
2017-07-15T16:18:24.906Z,22.50
2017-07-15T16:20:53.261Z,22.40
2017-07-15T16:23:21.533Z,22.30
2017-07-15T16:25:49.796Z,22.30
2017-07-15T16:28:18.075Z,22.20
2017-07-15T16:30:46.333Z,22.20
2017-07-15T16:33:14.659Z,22.20
2017-07-15T16:35:42.975Z,22.20
2017-07-15T16:38:12.000Z,22.00
2017-07-15T16:40:40.469Z,21.90
2017-07-15T16:43:08.774Z,22.00
2017-07-15T16:45:37.039Z,21.90
2017-07-15T16:48:05.311Z,21.80
2017-07-15T16:50:33.734Z,21.80
2017-07-15T16:53:02.048Z,21.70
2017-07-15T16:55:30.359Z,21.70
2017-07-15T16:57:58.651Z,21.50
2017-07-15T17:00:26.949Z,21.50
2017-07-15T17:02:55.249Z,21.40
2017-07-15T17:05:23.584Z,20.90
2017-07-15T17:07:51.835Z,20.60
2017-07-15T17:10:20.142Z,20.50
2017-07-15T17:12:48.395Z,20.30
2017-07-15T17:15:16.659Z,20.00
2017-07-15T17:17:44.940Z,19.70
2017-07-15T17:20:13.246Z,19.50
2017-07-15T17:22:41.626Z,19.20
2017-07-15T17:25:09.904Z,18.90
2017-07-15T17:27:38.294Z,18.70
2017-07-15T17:30:06.666Z,18.50
2017-07-15T17:32:34.947Z,18.40
2017-07-15T17:35:03.313Z,18.40
2017-07-15T17:37:31.570Z,18.40
2017-07-15T17:39:59.857Z,18.40
2017-07-15T17:42:28.111Z,18.40
2017-07-15T17:44:56.425Z,18.50
2017-07-15T17:47:24.704Z,18.40
2017-07-15T17:49:52.996Z,18.30
2017-07-15T17:52:21.373Z,18.20
2017-07-15T17:54:49.838Z,18.10
2017-07-15T17:57:18.098Z,18.10
2017-07-15T17:59:46.399Z,18.10
2017-07-15T18:02:14.675Z,18.00
2017-07-15T18:04:43.042Z,18.10
2017-07-15T18:07:11.331Z,18.00
2017-07-15T18:09:39.600Z,18.00
2017-07-15T18:12:07.982Z,17.70
2017-07-15T18:14:36.258Z,17.50
2017-07-15T18:17:04.561Z,17.20
2017-07-15T18:19:33.633Z,16.70
2017-07-15T18:22:01.907Z,16.70
2017-07-15T18:24:30.185Z,16.50
2017-07-15T18:26:58.563Z,16.40
2017-07-15T18:29:26.839Z,16.40
2017-07-15T18:31:55.104Z,16.40
2017-07-15T18:34:23.502Z,16.40
2017-07-15T18:36:51.762Z,16.40
2017-07-15T18:39:20.129Z,16.40
2017-07-15T18:41:48.381Z,16.30
2017-07-15T18:44:16.723Z,16.40
2017-07-15T18:46:44.988Z,16.40
2017-07-15T18:49:13.384Z,16.50
2017-07-15T18:51:41.753Z,16.40
2017-07-15T18:54:10.225Z,16.50
2017-07-15T18:56:38.617Z,16.50
2017-07-15T18:59:06.880Z,16.60
2017-07-15T19:01:35.273Z,16.70
2017-07-15T19:04:03.528Z,16.80
2017-07-15T19:06:32.124Z,16.80
2017-07-15T19:09:00.403Z,16.80
2017-07-15T19:11:28.805Z,16.80
2017-07-15T19:13:57.923Z,16.90
2017-07-15T19:16:26.252Z,16.90
2017-07-15T19:18:54.506Z,16.90
2017-07-15T19:21:22.799Z,16.90
2017-07-15T19:23:51.073Z,17.00
2017-07-15T19:26:19.464Z,17.00
2017-07-15T19:28:47.741Z,17.00
2017-07-15T19:31:15.997Z,17.00
2017-07-15T19:33:44.333Z,17.00
2017-07-15T19:36:12.668Z,17.10
2017-07-15T19:38:41.054Z,17.10
2017-07-15T19:41:09.344Z,17.10
2017-07-15T19:43:37.699Z,17.10
2017-07-15T19:46:05.966Z,17.20
2017-07-15T19:48:34.255Z,17.10
2017-07-15T19:51:02.644Z,17.10
2017-07-15T19:53:30.908Z,17.10
2017-07-15T19:55:59.191Z,17.20
2017-07-15T19:58:27.483Z,17.20
2017-07-15T20:00:55.750Z,17.20
2017-07-15T20:03:24.116Z,17.20
2017-07-15T20:05:52.442Z,17.20
2017-07-15T20:08:21.506Z,17.10
2017-07-15T20:10:49.769Z,17.10
2017-07-15T20:13:18.081Z,17.10
2017-07-15T20:15:47.162Z,17.00
2017-07-15T20:18:15.404Z,17.00
2017-07-15T20:20:43.702Z,16.90
2017-07-15T20:23:11.978Z,17.00
2017-07-15T20:25:40.260Z,17.10
2017-07-15T20:28:08.535Z,17.10
2017-07-15T20:30:36.803Z,17.10
2017-07-15T20:33:05.094Z,17.20
2017-07-15T20:35:33.366Z,17.20
2017-07-15T20:38:01.673Z,17.30
2017-07-15T20:40:30.772Z,17.40
2017-07-15T20:42:59.877Z,17.40
2017-07-15T20:45:28.934Z,17.30
2017-07-15T20:47:57.199Z,17.40
2017-07-15T20:50:25.483Z,17.40
2017-07-15T20:53:08.612Z,17.40
2017-07-15T20:55:36.990Z,17.40
2017-07-15T20:58:05.244Z,17.50
2017-07-15T21:00:33.544Z,17.50
2017-07-15T21:03:01.912Z,17.50
2017-07-15T21:05:30.202Z,17.50
2017-07-15T21:07:58.586Z,17.50
2017-07-15T21:10:26.863Z,17.50
2017-07-15T21:12:55.231Z,17.50
2017-07-15T21:15:23.617Z,17.40
2017-07-15T21:17:51.887Z,17.30
2017-07-15T21:20:20.219Z,17.30
2017-07-15T21:22:48.551Z,17.30
2017-07-15T21:25:16.937Z,17.20
2017-07-15T21:27:45.225Z,17.20
2017-07-15T21:30:13.583Z,17.10
2017-07-15T21:32:41.940Z,17.10
2017-07-15T21:35:10.202Z,17.00
2017-07-15T21:37:38.535Z,16.90
2017-07-15T21:40:06.970Z,16.90
2017-07-15T21:42:35.233Z,16.80
2017-07-15T21:45:03.520Z,16.80
2017-07-15T21:47:31.811Z,16.70
2017-07-15T21:50:00.207Z,16.70
2017-07-15T21:52:28.481Z,16.60
2017-07-15T21:54:56.768Z,16.60
2017-07-15T21:57:25.932Z,16.60
2017-07-15T21:59:54.239Z,16.50
2017-07-15T22:02:22.543Z,16.50
2017-07-15T22:04:51.589Z,16.50
2017-07-15T22:07:19.907Z,16.50
2017-07-15T22:09:48.380Z,16.50
2017-07-15T22:12:16.632Z,16.50
2017-07-15T22:14:44.934Z,16.40
2017-07-15T22:17:13.312Z,16.40
2017-07-15T22:19:41.676Z,16.50
2017-07-15T22:22:09.955Z,16.50
2017-07-15T22:24:38.242Z,16.50
2017-07-15T22:27:06.697Z,16.50
2017-07-15T22:29:34.955Z,16.60
2017-07-15T22:32:03.254Z,16.50
2017-07-15T22:34:31.526Z,16.50
2017-07-15T22:36:59.801Z,16.50
2017-07-15T22:39:28.188Z,16.50
2017-07-15T22:41:56.443Z,16.50
2017-07-15T22:44:24.841Z,16.50
2017-07-15T22:46:53.097Z,16.50
2017-07-15T22:49:21.389Z,16.50
2017-07-15T22:51:49.727Z,16.50
2017-07-15T22:54:17.978Z,16.40
2017-07-15T22:56:46.268Z,16.50
2017-07-15T22:59:14.570Z,16.40
2017-07-15T23:01:42.824Z,16.40
2017-07-15T23:04:11.121Z,16.40
2017-07-15T23:06:39.421Z,16.40
2017-07-15T23:09:07.723Z,16.50
2017-07-15T23:11:36.780Z,16.40
2017-07-15T23:14:05.062Z,16.40
2017-07-15T23:16:34.024Z,16.40
2017-07-15T23:19:02.280Z,16.40
2017-07-15T23:21:30.609Z,16.40
2017-07-15T23:23:58.890Z,16.40
2017-07-15T23:26:27.152Z,16.40
2017-07-15T23:28:55.545Z,16.40
2017-07-15T23:31:23.818Z,16.30
2017-07-15T23:33:52.209Z,16.40
2017-07-15T23:36:20.475Z,16.40
2017-07-15T23:38:48.843Z,16.40
2017-07-15T23:41:17.121Z,16.40
2017-07-15T23:43:45.387Z,16.30
2017-07-15T23:46:13.786Z,16.30
2017-07-15T23:48:42.060Z,16.40
2017-07-15T23:51:10.432Z,16.40
2017-07-15T23:53:38.769Z,16.40
2017-07-15T23:56:07.083Z,16.40
2017-07-15T23:58:35.463Z,16.40
